createdAt,value
2023-09-10T00:01:12.280Z,19
2023-09-10T00:03:15.407Z,21.1
2023-09-10T00:05:14.675Z,16.2
2023-09-10T00:07:14.166Z,15.9
2023-09-10T00:09:13.658Z,15.4
2023-09-10T00:11:13.211Z,16.1
2023-09-10T00:13:12.649Z,16
2023-09-10T00:15:12.163Z,14.8
2023-09-10T00:17:15.098Z,17.2
2023-09-10T00:19:14.567Z,17.9
2023-09-10T00:21:14.057Z,17.9
2023-09-10T00:22:15.506Z,17
2023-09-10T00:26:14.539Z,15.3
2023-09-10T00:28:14.005Z,17.2
2023-09-10T00:30:16.912Z,16.7
2023-09-10T00:34:17.502Z,17
2023-09-10T00:38:16.543Z,15.7
2023-09-10T00:40:15.988Z,17.2
2023-09-10T00:44:18.422Z,16.4
2023-09-10T00:48:17.442Z,15.3
2023-09-10T01:00:17.971Z,17.1
2023-09-10T01:04:16.950Z,21.1
2023-09-10T01:08:16.054Z,18
2023-09-10T01:17:19.202Z,21.5
2023-09-10T01:19:18.463Z,20.4
2023-09-10T01:21:18.031Z,20.8
2023-09-10T01:23:17.553Z,18.7
2023-09-10T01:25:20.431Z,21
2023-09-10T01:27:19.930Z,24.5
2023-09-10T01:29:19.494Z,15
2023-09-10T01:31:19.157Z,16.3
2023-09-10T01:33:18.462Z,15.4
2023-09-10T01:35:17.996Z,19.2
2023-09-10T01:37:17.463Z,22.9
2023-09-10T01:39:20.481Z,17.5
2023-09-10T01:41:19.936Z,16.5
2023-09-10T01:43:19.437Z,18.4
2023-09-10T01:45:18.977Z,19.8
2023-09-10T01:49:17.995Z,18.4
2023-09-10T01:51:17.470Z,18.1
2023-09-10T01:53:20.454Z,20.8
2023-09-10T01:55:20.012Z,17.5
2023-09-10T01:57:19.493Z,21.4
2023-09-10T02:07:20.470Z,22.4
2023-09-10T02:09:19.968Z,18.6
2023-09-10T02:14:20.483Z,20.6
2023-09-10T02:16:20.020Z,19.2
2023-09-10T02:18:19.601Z,17.8
2023-09-10T02:20:22.486Z,19.2
2023-09-10T02:22:21.979Z,19
2023-09-10T02:24:21.476Z,16.5
2023-09-10T02:28:20.549Z,17.5
2023-09-10T02:42:20.617Z,25.2
2023-09-10T02:44:20.118Z,17
2023-09-10T02:46:19.695Z,20
2023-09-10T02:48:22.638Z,21.4
2023-09-10T02:50:22.176Z,20.3
2023-09-10T02:52:21.661Z,26.2
2023-09-10T02:54:21.206Z,20.1
2023-09-10T02:56:20.750Z,23.5
2023-09-10T02:58:20.231Z,19.6
2023-09-10T03:02:22.850Z,22.5
2023-09-10T03:04:22.262Z,28.3
2023-09-10T03:06:21.830Z,22
2023-09-10T03:08:43.253Z,25.2
2023-09-10T03:12:42.287Z,19.7
2023-09-10T03:14:45.219Z,25.6
2023-09-10T03:16:44.772Z,16.5
2023-09-10T03:18:44.282Z,20
2023-09-10T03:20:43.942Z,19.8
2023-09-10T03:22:43.379Z,20.1
2023-09-10T03:24:42.792Z,17.9
2023-09-10T03:26:42.346Z,18.4
2023-09-10T03:28:45.281Z,25.7
2023-09-10T03:30:44.767Z,19.5
2023-09-10T03:34:43.838Z,17.1
2023-09-10T03:38:42.885Z,17.2
2023-09-10T03:52:42.993Z,15.5
2023-09-10T03:56:45.509Z,19.4
2023-09-10T03:58:45.040Z,20.7
2023-09-10T04:01:46.069Z,21.6
2023-09-10T04:05:45.081Z,15.2
2023-09-10T04:11:47.103Z,22.1
2023-09-10T04:13:46.711Z,18.3
2023-09-10T04:15:46.171Z,15.8
2023-09-10T04:17:45.793Z,17.1
2023-09-10T04:19:45.295Z,23.7
2023-09-10T04:21:44.749Z,14
2023-09-10T04:23:47.723Z,20.2
2023-09-10T04:25:47.287Z,14.8
2023-09-10T04:27:46.788Z,15.7
2023-09-10T04:29:46.308Z,14.9
2023-09-10T04:33:45.394Z,14.7
2023-09-10T04:35:44.929Z,17.8
2023-09-10T04:37:47.927Z,16.4
2023-09-10T04:39:47.432Z,15.3
2023-09-10T04:41:46.956Z,20.6
2023-09-10T04:43:46.517Z,18
2023-09-10T04:45:46.027Z,14.7
2023-09-10T04:53:47.584Z,15
2023-09-10T04:55:47.177Z,17.1
2023-09-10T04:56:48.625Z,19.9
2023-09-10T04:58:48.156Z,17.4
2023-09-10T05:00:47.835Z,17
2023-09-10T05:02:48.503Z,18.1
2023-09-10T05:04:50.194Z,25.1
2023-09-10T05:06:49.704Z,17.9
2023-09-10T05:08:49.255Z,15.8
2023-09-10T05:12:48.298Z,17.1
2023-09-10T05:14:47.857Z,19.9
2023-09-10T05:16:47.533Z,20.4
2023-09-10T05:18:50.337Z,20.5
2023-09-10T05:20:50.040Z,18.2
2023-09-10T05:22:49.457Z,20.6
2023-09-10T05:24:48.933Z,16
2023-09-10T05:28:48.301Z,21
2023-09-10T05:30:47.612Z,26.6
2023-09-10T05:32:50.669Z,20.1
2023-09-10T05:34:50.077Z,54.7
2023-09-10T05:40:48.650Z,21.7
2023-09-10T05:50:49.716Z,23.9
2023-09-10T05:51:51.217Z,25.5
2023-09-10T06:05:51.324Z,27
2023-09-10T06:13:52.893Z,29.6
2023-09-10T06:19:51.388Z,27.3
2023-09-10T06:21:52.432Z,26.4
2023-09-10T06:23:51.875Z,27.4
2023-09-10T06:25:51.429Z,33.5
2023-09-10T06:27:54.330Z,32.4
2023-09-10T06:29:53.817Z,34.4
2023-09-10T06:31:53.470Z,28.6
2023-09-10T06:33:52.836Z,38.3
2023-09-10T06:35:52.323Z,34
2023-09-10T06:37:51.863Z,44.3
2023-09-10T06:39:51.367Z,56.6
2023-09-10T06:41:54.189Z,60.8
2023-09-10T06:43:53.677Z,71.7
2023-09-10T06:45:53.194Z,58.6
2023-09-10T06:48:08.780Z,63.7
2023-09-10T06:50:08.225Z,56.8
2023-09-10T06:52:07.622Z,56
2023-09-10T06:54:10.537Z,55.3
2023-09-10T06:56:10.027Z,52.2
2023-09-10T06:58:09.492Z,50.9
2023-09-10T07:00:08.936Z,52.1
2023-09-10T07:02:08.438Z,52.7
2023-09-10T07:04:07.862Z,63.9
2023-09-10T07:26:07.733Z,30.1
2023-09-10T07:32:05.798Z,23.6
2023-09-10T07:34:04.978Z,29.3
2023-09-10T07:36:07.609Z,25.3
2023-09-10T07:40:06.180Z,20
2023-09-10T07:41:07.485Z,20.9
2023-09-10T07:43:06.717Z,28.6
2023-09-10T07:47:05.221Z,18.4
2023-09-10T07:49:07.794Z,17.4
2023-09-10T07:51:07.020Z,23.5
2023-09-10T07:53:06.223Z,16.8
2023-09-10T07:57:04.613Z,19.7
2023-09-10T07:59:03.809Z,17.5
2023-09-10T08:01:02.992Z,14.6
2023-09-10T08:03:05.515Z,18.5
2023-09-10T08:05:04.633Z,17.5
2023-09-10T08:07:03.777Z,15.7
2023-09-10T08:11:02.177Z,15.9
2023-09-10T08:13:01.217Z,14.1
2023-09-10T08:15:00.479Z,20.6
2023-09-10T08:17:02.886Z,15.7
2023-09-10T08:35:59.556Z,15.2
2023-09-10T08:37:58.683Z,16
2023-09-10T08:39:57.774Z,17.1
2023-09-10T08:41:56.887Z,19.5
2023-09-10T08:43:59.517Z,17.3
2023-09-10T08:51:55.737Z,15.7
2023-09-10T08:53:54.806Z,12.5
2023-09-10T08:59:55.444Z,12.1
2023-09-10T09:03:53.637Z,12.9
2023-09-10T09:05:52.682Z,12
2023-09-10T09:07:51.888Z,14.8
2023-09-10T09:09:50.857Z,13.7
2023-09-10T09:13:52.385Z,19.8
2023-09-10T09:15:51.401Z,11.5
2023-09-10T09:17:53.066Z,14.1
2023-09-10T09:21:48.449Z,11.7
2023-09-10T09:29:47.620Z,11
2023-09-10T09:30:48.810Z,10.7
2023-09-10T09:32:47.656Z,11.3
2023-09-10T09:34:46.474Z,8.6
2023-09-10T09:36:45.284Z,9.1
2023-09-10T09:38:47.475Z,10.4
2023-09-10T09:40:46.242Z,8.4
2023-09-10T09:42:44.981Z,9.4
2023-09-10T09:44:43.701Z,9.3
2023-09-10T09:50:39.592Z,11.2
2023-09-10T09:52:41.432Z,12.3
2023-09-10T09:54:39.936Z,13.1
2023-09-10T09:56:38.459Z,16.9
2023-09-10T09:58:36.936Z,9.8
2023-09-10T10:00:37.654Z,16.3
2023-09-10T10:02:33.937Z,12.1
2023-09-10T10:04:32.329Z,16.7
2023-09-10T10:06:42.845Z,13.9
2023-09-10T10:08:32.516Z,13.9
2023-09-10T10:10:30.890Z,26.8
2023-09-10T10:12:29.286Z,11.9
2023-09-10T10:16:26.167Z,9
2023-09-10T10:18:24.479Z,9.2
2023-09-10T10:34:33.367Z,8.2
2023-09-10T10:40:28.140Z,8.5
2023-09-10T10:46:26.196Z,9.7
2023-09-10T10:48:24.416Z,30.9
2023-09-10T10:50:22.704Z,17.2
2023-09-10T10:54:19.028Z,12.8
2023-09-10T10:58:15.426Z,14.4
2023-09-10T11:00:16.972Z,6.5
2023-09-10T11:04:13.347Z,8.1
2023-09-10T11:08:09.734Z,15.1
2023-09-10T11:19:04.533Z,6.3
2023-09-10T11:21:02.794Z,14
2023-09-10T11:23:00.796Z,6.3
2023-09-10T11:24:58.924Z,12.4
2023-09-10T11:27:00.418Z,6.6
2023-09-10T11:28:58.548Z,8.1
2023-09-10T11:30:56.655Z,5.9
2023-09-10T11:36:51.007Z,11.4
2023-09-10T11:38:49.174Z,25.1
2023-09-10T11:40:50.647Z,21.9
2023-09-10T11:44:46.890Z,6.4
2023-09-10T11:46:47.130Z,11.3
2023-09-10T11:50:41.300Z,9.3
2023-09-10T11:58:37.193Z,34.1
2023-09-10T12:00:35.312Z,16.2
2023-09-10T12:04:33.089Z,8
2023-09-10T12:06:31.188Z,10.6
2023-09-10T12:08:32.722Z,11
2023-09-10T12:10:30.877Z,5.2
2023-09-10T12:12:28.940Z,10.7
2023-09-10T12:13:29.702Z,6.8
2023-09-10T12:15:27.905Z,15
2023-09-10T12:17:25.983Z,8.8
2023-09-10T12:19:24.120Z,7
2023-09-10T12:21:25.607Z,9
2023-09-10T12:23:23.829Z,10.1
2023-09-10T12:25:21.902Z,12.4
2023-09-10T12:29:18.186Z,6.5
2023-09-10T12:31:16.349Z,8.7
2023-09-10T12:33:14.457Z,12.4
2023-09-10T12:35:15.955Z,10.1
2023-09-10T12:37:14.102Z,16.6
2023-09-10T12:41:10.467Z,6.5
2023-09-10T12:45:06.751Z,9
2023-09-10T12:51:04.626Z,5.1
2023-09-10T12:53:02.853Z,9.7
2023-09-10T12:55:01.023Z,8.1
2023-09-10T12:56:59.194Z,9.6
2023-09-10T12:58:57.421Z,11.8
2023-09-10T13:02:57.217Z,16.8
2023-09-10T13:06:53.594Z,12.7
2023-09-10T13:07:54.374Z,5.1
2023-09-10T13:11:50.832Z,9.5
2023-09-10T13:13:49.062Z,10.4
2023-09-10T13:15:50.645Z,12.5
2023-09-10T13:17:49.066Z,15.5
2023-09-10T13:25:43.706Z,8.2
2023-09-10T13:27:40.140Z,9.3
2023-09-10T13:29:41.809Z,13.2
2023-09-10T13:31:40.015Z,9.6
2023-09-10T13:33:38.771Z,5.3
2023-09-10T13:35:36.620Z,7.7
2023-09-10T13:37:34.835Z,9.8
2023-09-10T13:39:33.111Z,7.4
2023-09-10T13:41:31.547Z,4.7
2023-09-10T13:43:33.008Z,8.9
2023-09-10T13:45:31.298Z,5.4
2023-09-10T13:47:29.613Z,5.6
2023-09-10T13:49:27.813Z,10.6
2023-09-10T13:51:26.117Z,6.3
2023-09-10T13:53:24.488Z,11.6
2023-09-10T13:55:22.689Z,8.6
2023-09-10T13:57:24.298Z,7.5
2023-09-10T13:59:22.615Z,20.3
2023-09-10T14:01:20.912Z,4.8
2023-09-10T14:03:34.789Z,8.3
2023-09-10T14:05:33.209Z,22.3
2023-09-10T14:07:31.314Z,8.1
2023-09-10T14:09:32.967Z,6.7
2023-09-10T14:13:29.528Z,8.9
2023-09-10T14:15:27.808Z,10.8
2023-09-10T14:17:26.129Z,17.7
2023-09-10T14:23:24.345Z,9.6
2023-09-10T14:25:22.642Z,6.5
2023-09-10T14:27:20.966Z,8.3
2023-09-10T14:29:19.315Z,11.2
2023-09-10T14:31:17.654Z,16.7
2023-09-10T14:33:16.020Z,7.2
2023-09-10T14:35:14.305Z,13
2023-09-10T14:37:15.956Z,23
2023-09-10T14:39:14.288Z,5.5
2023-09-10T14:41:12.681Z,9
2023-09-10T14:45:09.382Z,6.8
2023-09-10T14:47:07.739Z,13.1
2023-09-10T14:49:06.097Z,6.1
2023-09-10T14:53:06.219Z,7.2
2023-09-10T14:56:05.467Z,7.3
2023-09-10T15:00:02.328Z,8.1
2023-09-10T15:02:00.740Z,19.8
2023-09-10T15:04:02.546Z,9.4
2023-09-10T15:07:59.430Z,16.1
2023-09-10T15:11:56.053Z,16.8
2023-09-10T15:13:54.474Z,7.3
2023-09-10T15:15:52.971Z,18.5
2023-09-10T15:17:54.718Z,10
2023-09-10T15:31:47.311Z,8.1
2023-09-10T15:35:44.181Z,16.1
2023-09-10T15:37:42.664Z,19.7
2023-09-10T15:39:41.137Z,13.8
2023-09-10T15:41:39.753Z,7.6
2023-09-10T15:45:40.040Z,9.8
2023-09-10T15:47:38.726Z,7.7
2023-09-10T15:49:37.010Z,8.5
2023-09-10T15:50:37.981Z,13.4
2023-09-10T15:54:36.957Z,13.2
2023-09-10T16:06:29.893Z,10.8
2023-09-10T16:08:28.652Z,29.8
2023-09-10T16:10:27.129Z,11.9
2023-09-10T16:12:29.200Z,13.6
2023-09-10T16:14:27.932Z,17.2
2023-09-10T16:20:23.975Z,12.4
2023-09-10T16:28:22.127Z,12.4
2023-09-10T16:36:17.004Z,6.8
2023-09-10T16:38:15.767Z,15.7
2023-09-10T16:40:17.960Z,16.8
2023-09-10T16:45:16.514Z,8.8
2023-09-10T16:47:15.348Z,13.9
2023-09-10T16:49:14.055Z,13.5
2023-09-10T16:51:12.806Z,10.3
2023-09-10T16:53:14.999Z,10.5
2023-09-10T16:55:13.758Z,15.5
2023-09-10T16:57:12.528Z,8.4
2023-09-10T16:59:11.368Z,11.4
2023-09-10T17:07:09.918Z,11.3
2023-09-10T17:09:08.696Z,19.8
2023-09-10T17:11:07.550Z,11.6
2023-09-10T17:17:04.016Z,41.1
2023-09-10T17:19:02.844Z,13
2023-09-10T17:21:05.036Z,9.4
2023-09-10T17:23:03.902Z,10.6
2023-09-10T17:25:02.751Z,7.7
2023-09-10T17:27:01.606Z,12
2023-09-10T17:29:00.476Z,7.9
2023-09-10T17:30:59.403Z,13.1
2023-09-10T17:32:58.298Z,10.7
2023-09-10T17:35:00.550Z,16.7
2023-09-10T17:36:59.377Z,14
2023-09-10T17:38:58.270Z,17.4
2023-09-10T17:41:18.956Z,19.2
2023-09-10T17:43:17.792Z,9.3
2023-09-10T17:45:16.703Z,10.2
2023-09-10T17:47:20.524Z,25.1
2023-09-10T17:49:19.440Z,12.5
2023-09-10T17:51:20.490Z,8
2023-09-10T17:53:17.350Z,13.4
2023-09-10T17:55:16.272Z,7.9
2023-09-10T17:57:15.228Z,9.9
2023-09-10T17:59:14.285Z,12.1
2023-09-10T18:01:16.565Z,8.8
2023-09-10T18:11:11.462Z,7.3
2023-09-10T18:13:10.438Z,10.6
2023-09-10T18:15:12.814Z,9.5
2023-09-10T18:17:11.874Z,9.4
2023-09-10T18:19:10.882Z,18.7
2023-09-10T18:21:09.914Z,8.9
2023-09-10T18:23:08.993Z,12.4
2023-09-10T18:25:07.977Z,14.8
2023-09-10T18:27:07.019Z,10.9
2023-09-10T18:29:09.437Z,12
2023-09-10T18:31:08.527Z,9.8
2023-09-10T18:33:07.604Z,15.7
2023-09-10T18:54:02.547Z,12.2
2023-09-10T18:58:04.011Z,17.3
2023-09-10T19:02:02.111Z,20.5
2023-09-10T19:06:00.236Z,10.7
2023-09-10T19:07:59.300Z,10.4
2023-09-10T19:12:00.818Z,8.5
2023-09-10T19:13:59.884Z,13.7
2023-09-10T19:15:59.011Z,13.5
2023-09-10T19:17:58.126Z,13.1
2023-09-10T19:19:57.148Z,8.3
2023-09-10T19:25:57.788Z,10.5
2023-09-10T19:28:58.158Z,14.5
2023-09-10T19:30:57.264Z,15.9
2023-09-10T19:32:56.421Z,8.9
2023-09-10T19:34:55.464Z,8
2023-09-10T19:36:57.950Z,10.4
2023-09-10T19:38:57.072Z,9.6
2023-09-10T19:40:56.195Z,11
2023-09-10T19:42:55.322Z,14.5
2023-09-10T19:44:54.461Z,27.8
2023-09-10T19:46:53.608Z,15
2023-09-10T19:48:52.732Z,14.9
2023-09-10T19:50:55.229Z,17
2023-09-10T19:52:54.335Z,11.8
2023-09-10T19:55:07.284Z,9.7
2023-09-10T19:56:52.675Z,7.7
2023-09-10T19:58:51.778Z,11.7
2023-09-10T20:00:50.994Z,12.8
2023-09-10T20:04:52.729Z,13.5
2023-09-10T20:14:48.526Z,13.7
2023-09-10T20:18:50.201Z,17.4
2023-09-10T20:20:49.486Z,23.9
2023-09-10T20:27:48.230Z,8.8
2023-09-10T20:33:49.180Z,12.2
2023-09-10T20:35:48.400Z,15.7
2023-09-10T20:37:47.565Z,14.4
2023-09-10T20:39:46.776Z,17.9
2023-09-10T20:41:46.125Z,16.3
2023-09-10T20:47:47.050Z,19.4
2023-09-10T20:49:46.176Z,16.5
2023-09-10T20:53:44.979Z,12
2023-09-10T20:55:43.807Z,12.4
2023-09-10T20:57:43.003Z,11.9
2023-09-10T20:59:45.641Z,20.7
2023-09-10T21:01:44.866Z,12.3
2023-09-10T21:03:44.171Z,15.5
2023-09-10T21:11:41.083Z,15.6
2023-09-10T21:13:43.722Z,13
2023-09-10T21:15:42.730Z,11.8
2023-09-10T21:17:42.005Z,18.8
2023-09-10T21:20:00.589Z,17.8
2023-09-10T21:21:59.787Z,15.6
2023-09-10T21:26:01.667Z,20.6
2023-09-10T21:35:57.762Z,15.9
2023-09-10T21:39:59.594Z,15.3
2023-09-10T21:41:58.810Z,16
2023-09-10T21:43:58.062Z,15.9
2023-09-10T21:45:57.291Z,16
2023-09-10T21:51:54.976Z,14.7
2023-09-10T21:53:57.564Z,23.8
2023-09-10T21:55:56.823Z,15.1
2023-09-10T21:57:56.040Z,15.5
2023-09-10T21:59:55.283Z,15.8
2023-09-10T22:05:53.049Z,18.1
2023-09-10T22:07:55.610Z,30.5
2023-09-10T22:09:55.152Z,14.9
2023-09-10T22:11:54.127Z,14.1
2023-09-10T22:12:55.440Z,27.5
2023-09-10T22:14:54.674Z,21.2
2023-09-10T22:16:53.907Z,16.5
2023-09-10T22:18:53.181Z,19.6
2023-09-10T22:20:56.043Z,19.1
2023-09-10T22:22:55.044Z,24.5
2023-09-10T22:24:54.316Z,17.5
2023-09-10T22:26:53.609Z,36.3
2023-09-10T22:28:52.812Z,18
2023-09-10T22:34:53.955Z,22.7
2023-09-10T22:36:53.217Z,20.8
2023-09-10T22:38:52.558Z,30.8
2023-09-10T22:40:51.734Z,20.7
2023-09-10T22:46:49.534Z,19
2023-09-10T22:48:52.149Z,20.4
2023-09-10T22:52:50.680Z,17.9
2023-09-10T22:54:50.008Z,23
2023-09-10T22:56:49.290Z,19.7
2023-09-10T22:58:48.615Z,21
2023-09-10T23:00:47.758Z,19.2
2023-09-10T23:02:50.527Z,22.1
2023-09-10T23:04:49.679Z,19.8
2023-09-10T23:06:48.937Z,20.3
2023-09-10T23:07:50.236Z,20.9
2023-09-10T23:11:48.856Z,29.4
2023-09-10T23:13:48.077Z,16.7
2023-09-10T23:15:50.762Z,26.3
2023-09-10T23:17:50.062Z,18.3
2023-09-10T23:21:48.570Z,20.5
2023-09-10T23:23:47.872Z,15.4
2023-09-10T23:25:47.162Z,25.5
2023-09-10T23:27:46.418Z,20.4
2023-09-10T23:31:49.824Z,16
2023-09-10T23:35:48.438Z,17.7
2023-09-10T23:39:46.964Z,17.1
2023-09-10T23:49:46.748Z,19
2023-09-10T23:51:46.030Z,17.9
2023-09-10T23:53:45.408Z,22.5
2023-09-10T23:55:44.610Z,22.2
2023-09-10T23:57:47.241Z,18.7
2023-09-10T23:59:46.552Z,21.3
